createdAt,value
2023-11-30T00:01:06.358Z,11.45
2023-11-30T00:03:36.066Z,11.90
2023-11-30T00:06:03.816Z,14.68
2023-11-30T00:08:31.357Z,22.80
2023-11-30T00:10:59.360Z,16.23
2023-11-30T00:13:27.553Z,21.33
2023-11-30T00:15:55.213Z,20.20
2023-11-30T00:18:22.566Z,18.60
2023-11-30T00:20:50.151Z,19.82
2023-11-30T00:23:17.632Z,20.75
2023-11-30T00:25:45.307Z,16.85
2023-11-30T00:28:12.946Z,18.02
2023-11-30T00:30:41.416Z,17.45
2023-11-30T00:33:09.146Z,13.43
2023-11-30T00:35:36.808Z,14.10
2023-11-30T00:38:04.416Z,14.20
2023-11-30T00:40:32.648Z,13.30
2023-11-30T00:43:00.930Z,12.03
2023-11-30T00:45:28.699Z,13.10
2023-11-30T00:47:56.583Z,11.65
2023-11-30T00:50:24.035Z,13.45
2023-11-30T00:52:51.448Z,12.18
2023-11-30T00:55:19.103Z,13.78
2023-11-30T00:57:47.061Z,11.08
2023-11-30T01:00:15.429Z,11.08
2023-11-30T01:02:43.036Z,11.88
2023-11-30T01:05:10.618Z,12.45
2023-11-30T01:07:38.396Z,12.10
2023-11-30T01:10:07.946Z,10.05
2023-11-30T01:12:35.708Z,15.15
2023-11-30T01:15:04.745Z,15.85
2023-11-30T01:17:32.301Z,16.00
2023-11-30T01:19:59.852Z,26.30
2023-11-30T01:22:27.526Z,21.75
2023-11-30T01:24:55.044Z,14.73
2023-11-30T01:27:24.000Z,11.60
2023-11-30T01:29:51.669Z,14.80
2023-11-30T01:32:19.394Z,19.75
2023-11-30T01:34:48.599Z,20.60
2023-11-30T01:37:21.476Z,15.10
2023-11-30T01:39:54.405Z,15.93
2023-11-30T01:42:31.902Z,15.83
2023-11-30T01:45:06.981Z,17.27
2023-11-30T01:47:46.100Z,17.00
2023-11-30T01:50:24.024Z,12.28
2023-11-30T01:52:55.653Z,11.15
2023-11-30T01:55:28.130Z,11.97
2023-11-30T01:58:05.137Z,13.45
2023-11-30T02:00:40.917Z,14.40
2023-11-30T02:03:09.673Z,14.63
2023-11-30T02:05:38.456Z,14.63
2023-11-30T02:08:06.250Z,15.23
2023-11-30T02:10:33.769Z,16.65
2023-11-30T02:13:01.393Z,14.07
2023-11-30T02:15:29.542Z,17.40
2023-11-30T02:17:57.069Z,14.55
2023-11-30T02:20:24.604Z,10.45
2023-11-30T02:22:52.304Z,14.53
2023-11-30T02:25:19.755Z,14.30
2023-11-30T02:27:47.569Z,14.85
2023-11-30T02:30:16.401Z,13.40
2023-11-30T02:32:43.936Z,16.10
2023-11-30T02:35:11.465Z,13.88
2023-11-30T02:37:38.638Z,15.95
2023-11-30T02:40:08.014Z,16.10
2023-11-30T02:42:36.089Z,14.18
2023-11-30T02:45:04.408Z,15.03
2023-11-30T02:47:31.799Z,15.90
2023-11-30T02:49:59.263Z,15.00
2023-11-30T02:52:26.881Z,14.65
2023-11-30T02:54:54.162Z,13.85
2023-11-30T02:57:21.773Z,14.10
2023-11-30T02:59:49.383Z,12.80
2023-11-30T03:02:16.736Z,13.38
2023-11-30T03:04:45.720Z,12.28
2023-11-30T03:07:13.192Z,12.13
2023-11-30T03:09:40.852Z,10.15
2023-11-30T03:12:08.618Z,11.83
2023-11-30T03:14:36.306Z,13.28
2023-11-30T03:17:04.049Z,13.85
2023-11-30T03:19:31.587Z,23.12
2023-11-30T03:21:59.287Z,15.38
2023-11-30T03:24:27.915Z,15.40
2023-11-30T03:26:55.374Z,10.72
2023-11-30T03:29:23.047Z,11.68
2023-11-30T03:31:51.235Z,11.83
2023-11-30T03:34:18.575Z,9.98
2023-11-30T03:36:46.223Z,11.97
2023-11-30T03:39:14.014Z,10.03
2023-11-30T03:41:41.302Z,9.50
2023-11-30T03:44:08.897Z,9.18
2023-11-30T03:46:37.040Z,26.07
2023-11-30T03:49:04.573Z,11.83
2023-11-30T03:51:33.496Z,11.53
2023-11-30T03:54:01.419Z,10.58
2023-11-30T03:56:33.756Z,10.78
2023-11-30T03:59:01.093Z,10.35
2023-11-30T04:01:28.862Z,8.90
2023-11-30T04:03:56.261Z,9.68
2023-11-30T04:06:24.467Z,11.60
2023-11-30T04:08:53.413Z,11.85
2023-11-30T04:11:21.300Z,14.20
2023-11-30T04:13:49.409Z,13.90
2023-11-30T04:16:18.331Z,52.08
2023-11-30T04:18:46.028Z,26.05
2023-11-30T04:21:14.614Z,26.60
2023-11-30T04:23:42.416Z,36.03
2023-11-30T04:26:10.607Z,36.17
2023-11-30T04:28:38.334Z,35.05
2023-11-30T04:31:06.456Z,39.53
2023-11-30T04:33:34.835Z,44.13
2023-11-30T04:36:03.444Z,60.80
2023-11-30T04:38:31.280Z,54.65
2023-11-30T04:40:59.955Z,58.87
2023-11-30T04:43:27.405Z,61.28
2023-11-30T04:45:54.862Z,50.58
2023-11-30T04:48:22.279Z,77.05
2023-11-30T04:50:50.023Z,145.25
2023-11-30T04:53:17.936Z,107.20
2023-11-30T04:55:46.500Z,151.93
2023-11-30T04:58:14.716Z,157.00
2023-11-30T05:00:42.613Z,130.30
2023-11-30T05:03:10.106Z,101.67
2023-11-30T05:05:37.922Z,38.25
2023-11-30T05:08:05.357Z,23.83
2023-11-30T05:10:32.804Z,23.25
2023-11-30T05:13:00.199Z,24.18
2023-11-30T05:15:27.882Z,25.43
2023-11-30T05:17:55.187Z,30.45
2023-11-30T05:20:22.682Z,57.75
2023-11-30T05:22:51.029Z,32.08
2023-11-30T05:25:18.847Z,35.45
2023-11-30T05:27:46.321Z,29.98
2023-11-30T05:30:14.360Z,30.65
2023-11-30T05:32:42.168Z,32.75
2023-11-30T05:35:09.775Z,30.85
2023-11-30T05:37:37.391Z,34.75
2023-11-30T05:40:08.238Z,45.00
2023-11-30T05:42:36.154Z,42.58
2023-11-30T05:45:05.783Z,44.40
2023-11-30T05:47:33.236Z,44.67
2023-11-30T05:50:00.835Z,35.10
2023-11-30T05:52:28.292Z,25.15
2023-11-30T05:54:57.711Z,25.20
2023-11-30T05:57:24.917Z,36.80
2023-11-30T05:59:52.932Z,30.43
2023-11-30T06:02:22.333Z,26.73
2023-11-30T06:04:52.136Z,15.40
2023-11-30T06:07:20.878Z,13.70
2023-11-30T06:09:48.442Z,17.90
2023-11-30T06:12:16.240Z,17.32
2023-11-30T06:14:44.285Z,17.60
2023-11-30T06:17:12.835Z,18.52
2023-11-30T06:19:41.294Z,17.87
2023-11-30T06:22:09.149Z,17.82
2023-11-30T06:24:36.952Z,26.05
2023-11-30T06:27:07.694Z,52.03
2023-11-30T06:29:35.205Z,24.12
2023-11-30T06:32:03.688Z,21.37
2023-11-30T06:34:33.076Z,23.95
2023-11-30T06:37:00.792Z,39.73
2023-11-30T06:39:29.423Z,20.43
2023-11-30T06:41:57.121Z,26.85
2023-11-30T06:44:24.687Z,42.27
2023-11-30T06:46:52.067Z,74.87
2023-11-30T06:49:19.356Z,65.57
2023-11-30T06:51:46.711Z,116.08
2023-11-30T06:54:14.361Z,170.17
2023-11-30T06:56:42.150Z,76.05
2023-11-30T06:59:09.711Z,37.40
2023-11-30T07:01:37.501Z,20.02
2023-11-30T07:04:06.210Z,18.45
2023-11-30T07:06:33.749Z,16.42
2023-11-30T07:09:01.217Z,19.77
2023-11-30T07:11:28.797Z,22.13
2023-11-30T07:13:56.248Z,23.83
2023-11-30T07:16:25.714Z,29.25
2023-11-30T07:18:53.355Z,34.73
2023-11-30T07:21:20.875Z,22.13
2023-11-30T07:23:48.255Z,25.55
2023-11-30T07:26:16.190Z,23.40
2023-11-30T07:28:43.506Z,27.55
2023-11-30T07:31:18.941Z,22.52
2023-11-30T07:33:47.923Z,21.05
2023-11-30T07:36:15.871Z,20.77
2023-11-30T07:38:43.367Z,22.27
2023-11-30T07:41:12.163Z,22.50
2023-11-30T07:43:39.627Z,31.93
2023-11-30T07:46:08.290Z,28.87
2023-11-30T07:48:35.801Z,35.65
2023-11-30T07:51:03.493Z,44.63
2023-11-30T07:53:30.990Z,42.10
2023-11-30T07:55:58.609Z,45.20
2023-11-30T07:58:26.376Z,30.80
2023-11-30T08:00:53.886Z,49.05
2023-11-30T08:03:21.251Z,40.20
2023-11-30T08:05:49.596Z,20.95
2023-11-30T08:08:18.199Z,25.97
2023-11-30T08:10:45.853Z,37.42
2023-11-30T08:13:14.152Z,25.20
2023-11-30T08:15:42.010Z,30.02
2023-11-30T08:18:10.945Z,24.80
2023-11-30T08:20:38.483Z,21.73
2023-11-30T08:23:06.000Z,21.17
2023-11-30T08:25:33.735Z,26.62
2023-11-30T08:28:01.461Z,32.93
2023-11-30T08:30:30.006Z,41.83
2023-11-30T08:32:59.399Z,34.45
2023-11-30T08:35:28.114Z,21.25
2023-11-30T08:37:55.939Z,23.57
2023-11-30T08:40:23.772Z,30.25
2023-11-30T08:42:51.271Z,20.52
2023-11-30T08:45:18.799Z,30.80
2023-11-30T08:47:46.268Z,55.17
2023-11-30T08:50:15.227Z,34.48
2023-11-30T08:52:42.614Z,25.88
2023-11-30T08:55:11.887Z,21.75
2023-11-30T08:57:42.014Z,19.77
2023-11-30T09:00:14.330Z,20.08
2023-11-30T09:02:42.594Z,21.37
2023-11-30T09:05:12.745Z,24.27
2023-11-30T09:07:40.143Z,14.15
2023-11-30T09:10:08.664Z,37.42
2023-11-30T09:12:36.296Z,34.90
2023-11-30T09:15:07.445Z,17.20
2023-11-30T09:17:36.245Z,16.42
2023-11-30T09:20:06.759Z,15.50
2023-11-30T09:22:36.382Z,13.38
2023-11-30T09:25:04.739Z,13.98
2023-11-30T09:27:32.909Z,14.10
2023-11-30T09:30:01.874Z,19.87
2023-11-30T09:32:29.314Z,23.18
2023-11-30T09:34:56.964Z,16.15
2023-11-30T09:37:24.587Z,17.23
2023-11-30T09:39:52.246Z,41.30
2023-11-30T09:42:20.173Z,27.07
2023-11-30T09:44:47.818Z,18.50
2023-11-30T09:47:16.535Z,9.98
2023-11-30T09:49:44.220Z,18.77
2023-11-30T09:52:11.576Z,25.43
2023-11-30T09:54:39.550Z,15.30
2023-11-30T09:57:07.075Z,10.30
2023-11-30T09:59:34.679Z,12.18
2023-11-30T10:02:05.496Z,15.40
2023-11-30T10:04:32.289Z,12.18
2023-11-30T10:06:59.848Z,17.70
2023-11-30T10:09:27.857Z,12.80
2023-11-30T10:11:55.804Z,15.23
2023-11-30T10:14:23.352Z,20.00
2023-11-30T10:16:50.846Z,15.32
2023-11-30T10:19:18.684Z,13.65
2023-11-30T10:21:46.363Z,14.33
2023-11-30T10:24:13.943Z,20.45
2023-11-30T10:26:44.054Z,23.57
2023-11-30T10:29:15.393Z,34.33
2023-11-30T10:31:44.305Z,21.10
2023-11-30T10:34:14.701Z,13.72
2023-11-30T10:36:44.468Z,15.85
2023-11-30T10:39:21.568Z,13.08
2023-11-30T10:41:55.558Z,11.85
2023-11-30T10:44:30.241Z,12.18
2023-11-30T10:47:00.437Z,16.85
2023-11-30T10:49:29.976Z,37.58
2023-11-30T10:52:03.507Z,20.88
2023-11-30T10:54:42.259Z,11.60
2023-11-30T10:57:13.717Z,13.45
2023-11-30T10:59:46.460Z,11.78
2023-11-30T11:02:15.024Z,12.68
2023-11-30T11:04:43.748Z,15.10
2023-11-30T11:07:14.101Z,13.65
2023-11-30T11:09:45.264Z,15.28
2023-11-30T11:12:26.710Z,12.37
2023-11-30T11:15:14.167Z,13.38
2023-11-30T11:17:52.563Z,12.30
2023-11-30T11:20:27.213Z,26.97
2023-11-30T11:23:09.174Z,23.80
2023-11-30T11:25:46.750Z,14.63
2023-11-30T11:28:17.380Z,16.90
2023-11-30T11:30:51.388Z,23.73
2023-11-30T11:33:23.097Z,15.18
2023-11-30T11:35:51.286Z,10.40
2023-11-30T11:38:19.687Z,15.48
2023-11-30T11:40:49.110Z,15.32
2023-11-30T11:43:17.071Z,13.32
2023-11-30T11:45:45.228Z,10.40
2023-11-30T11:48:13.508Z,7.62
2023-11-30T11:50:41.550Z,8.68
2023-11-30T11:53:09.366Z,9.33
2023-11-30T11:55:38.863Z,13.68
2023-11-30T11:58:06.638Z,15.15
2023-11-30T12:00:34.397Z,12.20
2023-11-30T12:03:07.320Z,14.43
2023-11-30T12:05:35.190Z,13.58
2023-11-30T12:08:03.756Z,20.10
2023-11-30T12:10:43.840Z,18.10
2023-11-30T12:13:14.654Z,18.57
2023-11-30T12:15:43.057Z,18.50
2023-11-30T12:18:14.062Z,16.10
2023-11-30T12:20:42.664Z,20.43
2023-11-30T12:23:11.968Z,18.57
2023-11-30T12:25:39.948Z,24.23
2023-11-30T12:28:08.092Z,18.15
2023-11-30T12:30:37.004Z,15.93
2023-11-30T12:33:04.852Z,22.82
2023-11-30T12:35:32.620Z,12.18
2023-11-30T12:38:02.609Z,14.80
2023-11-30T12:40:30.645Z,12.82
2023-11-30T12:42:58.498Z,52.40
2023-11-30T12:45:27.896Z,26.80
2023-11-30T12:47:56.420Z,26.50
2023-11-30T12:50:24.234Z,13.90
2023-11-30T12:52:52.460Z,10.72
2023-11-30T12:55:20.462Z,16.40
2023-11-30T12:57:48.699Z,21.95
2023-11-30T13:00:17.784Z,18.98
2023-11-30T13:02:47.659Z,22.58
2023-11-30T13:05:16.663Z,24.77
2023-11-30T13:07:44.587Z,50.60
2023-11-30T13:10:12.674Z,33.00
2023-11-30T13:12:41.550Z,24.15
2023-11-30T13:15:12.562Z,50.65
2023-11-30T13:17:40.904Z,49.42
2023-11-30T13:20:12.488Z,29.55
2023-11-30T13:22:47.376Z,16.97
2023-11-30T13:25:15.581Z,17.10
2023-11-30T13:27:48.418Z,15.18
2023-11-30T13:30:18.131Z,14.70
2023-11-30T13:32:46.697Z,17.20
2023-11-30T13:35:14.601Z,21.12
2023-11-30T13:37:42.772Z,18.75
2023-11-30T13:40:11.903Z,15.78
2023-11-30T13:42:39.821Z,18.90
2023-11-30T13:45:08.468Z,18.32
2023-11-30T13:47:36.304Z,19.45
2023-11-30T13:50:06.131Z,21.77
2023-11-30T13:52:34.120Z,16.30
2023-11-30T13:55:01.932Z,14.05
2023-11-30T13:57:29.702Z,14.93
2023-11-30T13:59:57.962Z,14.50
2023-11-30T14:02:25.875Z,15.05
2023-11-30T14:04:54.106Z,21.82
2023-11-30T14:07:22.332Z,26.35
2023-11-30T14:09:50.098Z,21.60
2023-11-30T14:12:17.889Z,18.30
2023-11-30T14:14:46.303Z,19.12
2023-11-30T14:17:14.246Z,17.87
2023-11-30T14:19:42.175Z,17.77
2023-11-30T14:22:10.104Z,17.20
2023-11-30T14:24:40.730Z,16.70
2023-11-30T14:27:12.529Z,16.90
2023-11-30T14:29:40.357Z,18.87
2023-11-30T14:32:08.566Z,22.40
2023-11-30T14:34:37.549Z,22.60
2023-11-30T14:37:05.504Z,36.93
2023-11-30T14:39:33.517Z,29.55
2023-11-30T14:42:01.489Z,31.65
2023-11-30T14:44:29.853Z,30.62
2023-11-30T14:46:57.782Z,26.00
2023-11-30T14:49:25.583Z,27.00
2023-11-30T14:51:53.422Z,45.03
2023-11-30T14:54:21.361Z,54.65
2023-11-30T14:56:50.685Z,67.58
2023-11-30T14:59:18.645Z,55.12
2023-11-30T15:01:47.225Z,66.15
2023-11-30T15:04:16.357Z,74.30
2023-11-30T15:06:44.588Z,40.65
2023-11-30T15:09:14.387Z,48.80
2023-11-30T15:11:43.934Z,32.20
2023-11-30T15:14:14.256Z,74.12
2023-11-30T15:16:42.524Z,38.30
2023-11-30T15:19:10.694Z,49.95
2023-11-30T15:21:38.555Z,43.05
2023-11-30T15:24:07.549Z,44.80
2023-11-30T15:26:35.368Z,36.65
2023-11-30T15:29:03.176Z,45.58
2023-11-30T15:31:32.307Z,30.37
2023-11-30T15:34:01.981Z,23.95
2023-11-30T15:36:30.027Z,26.55
2023-11-30T15:38:59.676Z,32.05
2023-11-30T15:41:27.698Z,48.02
2023-11-30T15:43:55.525Z,44.58
2023-11-30T15:46:23.341Z,49.75
2023-11-30T15:48:51.181Z,46.25
2023-11-30T15:51:20.109Z,36.80
2023-11-30T15:53:47.808Z,58.98
2023-11-30T15:56:21.762Z,63.05
2023-11-30T15:58:49.693Z,50.17
2023-11-30T16:01:17.681Z,50.95
2023-11-30T16:03:45.858Z,46.05
2023-11-30T16:06:13.964Z,46.90
2023-11-30T16:08:41.839Z,50.28
2023-11-30T16:11:14.509Z,44.85
2023-11-30T16:13:42.977Z,42.08
2023-11-30T16:16:15.029Z,49.18
2023-11-30T16:18:43.128Z,44.20
2023-11-30T16:21:16.621Z,39.10
2023-11-30T16:23:47.943Z,35.48
2023-11-30T16:26:21.255Z,36.42
2023-11-30T16:28:49.502Z,35.28
2023-11-30T16:31:18.030Z,31.75
2023-11-30T16:33:45.940Z,60.38
2023-11-30T16:36:13.725Z,49.77
2023-11-30T16:38:42.290Z,49.10
2023-11-30T16:41:10.165Z,51.00
2023-11-30T16:43:38.080Z,38.63
2023-11-30T16:46:07.139Z,35.70
2023-11-30T16:48:35.847Z,38.30
2023-11-30T16:51:07.787Z,38.20
2023-11-30T16:53:35.672Z,55.65
2023-11-30T16:56:04.495Z,39.25
2023-11-30T16:58:32.300Z,38.63
2023-11-30T17:01:00.268Z,49.45
2023-11-30T17:03:29.213Z,34.00
2023-11-30T17:05:57.623Z,25.62
2023-11-30T17:08:25.481Z,29.42
2023-11-30T17:10:53.338Z,32.33
2023-11-30T17:13:23.448Z,27.62
2023-11-30T17:15:52.936Z,28.98
2023-11-30T17:18:21.089Z,26.73
2023-11-30T17:20:48.930Z,31.55
2023-11-30T17:23:17.097Z,32.73
2023-11-30T17:25:44.983Z,34.08
2023-11-30T17:28:13.194Z,36.88
2023-11-30T17:30:41.147Z,41.18
2023-11-30T17:33:09.025Z,57.78
2023-11-30T17:35:37.222Z,33.67
2023-11-30T17:38:05.044Z,34.50
2023-11-30T17:40:34.327Z,26.35
2023-11-30T17:43:03.737Z,36.23
2023-11-30T17:45:31.510Z,35.43
2023-11-30T17:47:59.468Z,35.40
2023-11-30T17:50:28.008Z,29.85
2023-11-30T17:52:56.501Z,30.08
2023-11-30T17:55:24.586Z,25.12
2023-11-30T17:57:52.406Z,23.40
2023-11-30T18:00:20.614Z,22.95
2023-11-30T18:02:49.651Z,22.82
2023-11-30T18:05:17.549Z,39.45
2023-11-30T18:07:45.396Z,28.52
2023-11-30T18:10:13.150Z,25.02
2023-11-30T18:12:40.874Z,25.20
2023-11-30T18:15:09.815Z,30.35
2023-11-30T18:17:37.637Z,26.55
2023-11-30T18:20:06.432Z,28.15
2023-11-30T18:22:34.406Z,25.40
2023-11-30T18:25:05.989Z,23.38
2023-11-30T18:27:33.980Z,20.00
2023-11-30T18:30:01.866Z,25.27
2023-11-30T18:32:29.780Z,22.70
2023-11-30T18:34:57.579Z,23.83
2023-11-30T18:37:25.529Z,29.37
2023-11-30T18:39:53.372Z,33.55
2023-11-30T18:42:21.828Z,33.45
2023-11-30T18:44:50.078Z,26.27
2023-11-30T18:47:18.056Z,23.95
2023-11-30T18:49:45.766Z,25.52
2023-11-30T18:52:15.592Z,21.50
2023-11-30T18:54:45.724Z,22.52
2023-11-30T18:57:14.330Z,20.02
2023-11-30T18:59:42.108Z,25.40
2023-11-30T19:02:10.293Z,20.82
2023-11-30T19:04:39.763Z,20.35
2023-11-30T19:07:07.619Z,21.37
2023-11-30T19:09:35.385Z,18.35
2023-11-30T19:12:03.453Z,18.62
2023-11-30T19:14:36.327Z,24.02
2023-11-30T19:17:04.386Z,16.45
2023-11-30T19:19:32.362Z,14.25
2023-11-30T19:22:00.315Z,16.23
2023-11-30T19:24:28.391Z,15.18
2023-11-30T19:26:56.675Z,16.48
2023-11-30T19:29:24.589Z,15.25
2023-11-30T19:31:52.440Z,16.80
2023-11-30T19:34:20.857Z,18.62
2023-11-30T19:36:48.705Z,18.07
2023-11-30T19:39:16.430Z,20.50
2023-11-30T19:41:48.528Z,15.78
2023-11-30T19:44:18.277Z,24.15
2023-11-30T19:46:48.804Z,18.15
2023-11-30T19:49:18.499Z,19.90
2023-11-30T19:51:46.923Z,20.00
2023-11-30T19:54:14.749Z,15.95
2023-11-30T19:56:42.559Z,19.90
2023-11-30T19:59:10.694Z,17.70
2023-11-30T20:01:38.530Z,15.23
2023-11-30T20:04:06.440Z,18.90
2023-11-30T20:06:34.437Z,18.77
2023-11-30T20:09:02.243Z,26.50
2023-11-30T20:11:30.572Z,19.80
2023-11-30T20:14:01.419Z,23.47
2023-11-30T20:16:29.411Z,42.67
2023-11-30T20:18:57.327Z,46.05
2023-11-30T20:21:26.978Z,38.75
2023-11-30T20:23:55.264Z,20.43
2023-11-30T20:26:23.695Z,24.02
2023-11-30T20:28:52.512Z,18.55
2023-11-30T20:31:20.786Z,20.95
2023-11-30T20:33:50.486Z,20.80
2023-11-30T20:36:19.261Z,21.15
2023-11-30T20:38:47.967Z,20.08
2023-11-30T20:41:17.368Z,19.40
2023-11-30T20:43:45.294Z,21.23
2023-11-30T20:46:14.057Z,49.48
2023-11-30T20:48:41.834Z,96.20
2023-11-30T20:51:09.796Z,78.92
2023-11-30T20:53:37.778Z,54.23
2023-11-30T20:56:07.109Z,46.50
2023-11-30T20:58:35.472Z,42.53
2023-11-30T21:01:03.392Z,34.08
2023-11-30T21:03:31.745Z,28.17
2023-11-30T21:06:01.294Z,27.58
2023-11-30T21:08:31.346Z,22.50
2023-11-30T21:11:03.151Z,19.57
2023-11-30T21:13:32.622Z,15.75
2023-11-30T21:16:00.578Z,22.52
2023-11-30T21:18:28.769Z,25.30
2023-11-30T21:20:56.772Z,26.57
2023-11-30T21:23:24.630Z,18.52
2023-11-30T21:25:53.457Z,16.50
2023-11-30T21:28:21.271Z,21.80
2023-11-30T21:30:49.302Z,17.52
2023-11-30T21:33:17.304Z,18.75
2023-11-30T21:35:45.175Z,15.38
2023-11-30T21:38:13.067Z,14.58
2023-11-30T21:40:40.891Z,15.32
2023-11-30T21:43:08.585Z,16.50
2023-11-30T21:45:36.526Z,17.32
2023-11-30T21:48:04.795Z,15.72
2023-11-30T21:50:32.704Z,15.05
2023-11-30T21:53:00.563Z,18.15
2023-11-30T21:55:28.378Z,19.00
2023-11-30T21:57:56.399Z,16.90
2023-11-30T22:00:24.400Z,15.03
2023-11-30T22:02:52.359Z,17.40
2023-11-30T22:05:26.965Z,17.45
2023-11-30T22:07:49.739Z,21.45
2023-11-30T22:10:19.080Z,17.75
2023-11-30T22:12:46.988Z,24.20
2023-11-30T22:15:14.858Z,19.48
2023-11-30T22:17:42.652Z,21.25
2023-11-30T22:20:11.972Z,16.97
2023-11-30T22:22:39.918Z,16.85
2023-11-30T22:25:08.930Z,15.20
2023-11-30T22:27:36.786Z,13.88
2023-11-30T22:30:06.152Z,15.03
2023-11-30T22:32:35.040Z,14.95
2023-11-30T22:35:03.091Z,15.63
2023-11-30T22:37:30.794Z,13.72
2023-11-30T22:39:58.654Z,11.33
2023-11-30T22:42:27.726Z,13.38
2023-11-30T22:44:56.247Z,13.22
2023-11-30T22:47:25.074Z,12.28
2023-11-30T22:49:52.815Z,10.90
2023-11-30T22:52:22.087Z,11.97
2023-11-30T22:54:50.042Z,11.57
2023-11-30T22:57:17.927Z,13.48
2023-11-30T22:59:45.687Z,13.00
2023-11-30T23:02:13.764Z,11.75
2023-11-30T23:04:42.127Z,13.32
2023-11-30T23:07:10.145Z,13.48
2023-11-30T23:09:39.677Z,15.45
2023-11-30T23:12:08.661Z,21.15
2023-11-30T23:14:36.341Z,18.00
2023-11-30T23:17:04.260Z,17.27
2023-11-30T23:19:32.488Z,17.90
2023-11-30T23:22:00.648Z,15.68
2023-11-30T23:24:31.867Z,18.62
2023-11-30T23:26:58.916Z,17.07
2023-11-30T23:29:26.801Z,16.02
2023-11-30T23:31:54.697Z,14.45
2023-11-30T23:34:22.469Z,17.37
2023-11-30T23:36:50.441Z,14.70
2023-11-30T23:39:18.425Z,11.40
2023-11-30T23:41:46.439Z,10.13
2023-11-30T23:44:14.251Z,9.18
2023-11-30T23:46:42.206Z,10.23
2023-11-30T23:49:10.206Z,9.50
2023-11-30T23:51:38.109Z,14.18
2023-11-30T23:54:05.992Z,11.20
2023-11-30T23:56:33.796Z,10.72
2023-11-30T23:59:01.581Z,10.50
